createdAt,value
2023-04-22T00:01:56.860Z,8.23
2023-04-22T00:04:25.122Z,5.95
2023-04-22T00:06:52.937Z,5.43
2023-04-22T00:09:20.557Z,6.32
2023-04-22T00:11:48.149Z,5.45
2023-04-22T00:14:15.813Z,5.35
2023-04-22T00:16:46.472Z,6.57
2023-04-22T00:19:16.123Z,4.22
2023-04-22T00:21:43.751Z,4.25
2023-04-22T00:24:11.354Z,5.97
2023-04-22T00:26:38.907Z,5.30
2023-04-22T00:29:06.571Z,6.25
2023-04-22T00:31:34.228Z,6.43
2023-04-22T00:34:01.987Z,7.38
2023-04-22T00:36:31.344Z,5.60
2023-04-22T00:38:59.041Z,4.78
2023-04-22T00:41:26.903Z,5.97
2023-04-22T00:43:54.928Z,5.68
2023-04-22T00:46:22.986Z,4.45
2023-04-22T00:48:51.058Z,5.68
2023-04-22T00:51:18.914Z,5.60
2023-04-22T00:53:48.035Z,5.22
2023-04-22T00:56:16.488Z,4.85
2023-04-22T00:58:44.608Z,4.50
2023-04-22T01:01:12.479Z,4.88
2023-04-22T01:03:41.697Z,4.82
2023-04-22T01:06:09.598Z,5.07
2023-04-22T01:08:37.328Z,3.88
2023-04-22T01:11:06.482Z,4.30
2023-04-22T01:13:35.774Z,5.20
2023-04-22T01:16:03.750Z,4.45
2023-04-22T01:18:32.313Z,4.30
2023-04-22T01:20:59.838Z,4.93
2023-04-22T01:23:29.262Z,6.60
2023-04-22T01:25:57.528Z,5.28
2023-04-22T01:28:25.749Z,7.70
2023-04-22T01:30:53.321Z,4.88
2023-04-22T01:33:21.027Z,3.83
2023-04-22T01:35:48.655Z,4.28
2023-04-22T01:38:16.410Z,4.25
2023-04-22T01:40:45.287Z,4.85
2023-04-22T01:43:12.983Z,5.45
2023-04-22T01:45:40.850Z,6.13
2023-04-22T01:48:08.480Z,6.70
2023-04-22T01:50:36.307Z,3.60
2023-04-22T01:53:04.142Z,5.43
2023-04-22T01:55:35.885Z,4.03
2023-04-22T01:58:04.956Z,5.38
2023-04-22T02:00:32.840Z,3.33
2023-04-22T02:03:00.617Z,4.35
2023-04-22T02:05:28.515Z,5.85
2023-04-22T02:07:56.204Z,4.75
2023-04-22T02:10:24.011Z,4.20
2023-04-22T02:12:51.642Z,4.13
2023-04-22T02:15:20.875Z,4.13
2023-04-22T02:17:48.559Z,4.65
2023-04-22T02:20:16.364Z,6.28
2023-04-22T02:22:45.671Z,5.22
2023-04-22T02:25:14.011Z,7.35
2023-04-22T02:27:41.549Z,3.90
2023-04-22T02:30:10.519Z,3.75
2023-04-22T02:32:40.241Z,4.30
2023-04-22T02:35:08.560Z,4.32
2023-04-22T02:37:36.322Z,4.35
2023-04-22T02:40:04.608Z,5.10
2023-04-22T02:42:32.348Z,5.38
2023-04-22T02:44:59.948Z,5.30
2023-04-22T02:47:27.524Z,4.13
2023-04-22T02:49:56.429Z,4.40
2023-04-22T02:52:23.985Z,5.00
2023-04-22T02:54:51.611Z,6.03
2023-04-22T02:57:19.143Z,3.97
2023-04-22T02:59:46.739Z,3.85
2023-04-22T03:02:17.038Z,4.82
2023-04-22T03:05:01.862Z,6.93
2023-04-22T03:07:31.573Z,4.55
2023-04-22T03:09:59.941Z,4.38
2023-04-22T03:12:27.552Z,4.70
2023-04-22T03:14:55.294Z,3.63
2023-04-22T03:17:25.827Z,3.88
2023-04-22T03:19:53.667Z,6.43
2023-04-22T03:22:23.665Z,4.25
2023-04-22T03:24:54.184Z,3.60
2023-04-22T03:27:22.053Z,5.68
2023-04-22T03:29:49.653Z,8.68
2023-04-22T03:32:17.406Z,4.70
2023-04-22T03:34:45.536Z,4.13
2023-04-22T03:37:14.001Z,4.13
2023-04-22T03:39:43.286Z,3.33
2023-04-22T03:42:11.894Z,3.72
2023-04-22T03:44:43.194Z,3.97
2023-04-22T03:47:11.628Z,4.50
2023-04-22T03:49:45.998Z,2.83
2023-04-22T03:52:13.837Z,3.45
2023-04-22T03:54:49.181Z,5.32
2023-04-22T03:57:16.859Z,6.57
2023-04-22T03:59:45.041Z,7.50
2023-04-22T04:02:13.553Z,3.55
2023-04-22T04:04:41.413Z,3.33
2023-04-22T04:07:09.615Z,3.55
2023-04-22T04:09:38.330Z,4.47
2023-04-22T04:12:08.571Z,7.47
2023-04-22T04:14:40.518Z,5.55
2023-04-22T04:17:10.044Z,4.32
2023-04-22T04:19:38.742Z,4.00
2023-04-22T04:22:07.644Z,4.28
2023-04-22T04:24:42.455Z,4.50
2023-04-22T04:27:17.987Z,4.80
2023-04-22T04:29:52.478Z,3.90
2023-04-22T04:32:34.222Z,6.40
2023-04-22T04:35:04.675Z,10.00
2023-04-22T04:37:32.442Z,4.82
2023-04-22T04:40:07.621Z,4.03
2023-04-22T04:42:53.037Z,3.45
2023-04-22T04:45:25.150Z,3.10
2023-04-22T04:47:54.646Z,4.00
2023-04-22T04:50:30.470Z,4.88
2023-04-22T04:53:02.337Z,4.10
2023-04-22T04:55:40.020Z,5.82
2023-04-22T04:58:15.552Z,8.85
2023-04-22T05:00:43.367Z,6.50
2023-04-22T05:03:12.149Z,4.10
2023-04-22T05:05:40.502Z,4.80
2023-04-22T05:08:08.258Z,2.75
2023-04-22T05:10:38.545Z,4.00
2023-04-22T05:13:06.122Z,4.47
2023-04-22T05:15:36.140Z,3.58
2023-04-22T05:18:04.096Z,3.30
2023-04-22T05:20:35.324Z,3.55
2023-04-22T05:23:04.235Z,4.60
2023-04-22T05:25:31.934Z,3.53
2023-04-22T05:30:41.696Z,5.00
2023-04-22T05:33:10.085Z,7.45
2023-04-22T05:35:38.060Z,11.63
2023-04-22T05:38:05.808Z,6.57
2023-04-22T05:40:34.241Z,5.45
2023-04-22T05:43:04.443Z,4.10
2023-04-22T05:45:32.255Z,3.55
2023-04-22T05:48:01.772Z,4.45
2023-04-22T05:50:33.067Z,3.67
2023-04-22T05:53:06.944Z,5.65
2023-04-22T05:55:35.631Z,3.95
2023-04-22T05:58:07.344Z,7.43
2023-04-22T06:00:48.421Z,4.15
2023-04-22T06:03:37.597Z,3.00
2023-04-22T06:06:06.175Z,3.88
2023-04-22T06:08:33.856Z,4.43
2023-04-22T06:11:01.541Z,4.03
2023-04-22T06:13:32.334Z,3.97
2023-04-22T06:16:00.948Z,4.50
2023-04-22T06:18:29.224Z,4.63
2023-04-22T06:20:58.560Z,3.72
2023-04-22T06:23:26.388Z,4.72
2023-04-22T06:25:53.970Z,6.40
2023-04-22T06:28:22.463Z,5.45
2023-04-22T06:30:52.152Z,3.53
2023-04-22T06:33:19.726Z,3.88
2023-04-22T06:35:47.501Z,2.97
2023-04-22T06:38:16.877Z,5.00
2023-04-22T06:41:02.860Z,3.97
2023-04-22T06:43:35.570Z,3.50
2023-04-22T06:48:48.862Z,6.68
2023-04-22T06:51:39.305Z,4.13
2023-04-22T06:54:09.447Z,4.63
2023-04-22T06:56:37.052Z,4.88
2023-04-22T06:59:04.811Z,4.35
2023-04-22T07:01:32.391Z,4.47
2023-04-22T07:04:00.152Z,4.85
2023-04-22T07:06:27.944Z,10.32
2023-04-22T07:08:55.969Z,11.43
2023-04-22T07:11:25.094Z,7.07
2023-04-22T07:14:03.101Z,9.82
2023-04-22T07:16:30.800Z,6.93
2023-04-22T07:18:59.149Z,5.70
2023-04-22T07:21:26.691Z,4.78
2023-04-22T07:23:54.277Z,8.00
2023-04-22T07:26:21.924Z,3.10
2023-04-22T07:28:51.045Z,3.22
2023-04-22T07:31:18.705Z,5.70
2023-04-22T07:33:46.346Z,8.23
2023-04-22T07:36:13.895Z,3.95
2023-04-22T07:38:41.461Z,7.28
2023-04-22T07:41:09.014Z,6.57
2023-04-22T07:43:36.880Z,4.03
2023-04-22T07:46:06.005Z,2.50
2023-04-22T07:48:33.573Z,4.70
2023-04-22T07:51:01.149Z,5.28
2023-04-22T07:53:28.818Z,3.97
2023-04-22T07:55:57.035Z,2.10
2023-04-22T07:58:24.632Z,4.18
2023-04-22T08:00:52.290Z,4.28
2023-04-22T08:03:21.437Z,4.00
2023-04-22T08:05:49.149Z,4.30
2023-04-22T08:08:16.733Z,1.73
2023-04-22T08:10:44.295Z,2.45
2023-04-22T08:13:11.826Z,4.78
2023-04-22T08:15:39.962Z,2.83
2023-04-22T08:18:07.673Z,1.85
2023-04-22T08:20:36.661Z,1.83
2023-04-22T08:23:04.574Z,2.42
2023-04-22T08:25:32.276Z,3.55
2023-04-22T08:27:59.877Z,2.83
2023-04-22T08:30:27.556Z,2.05
2023-04-22T08:32:55.160Z,2.33
2023-04-22T08:35:22.730Z,1.40
2023-04-22T08:37:51.634Z,1.98
2023-04-22T08:40:19.240Z,1.63
2023-04-22T08:42:47.743Z,3.33
2023-04-22T08:45:15.894Z,1.73
2023-04-22T08:47:43.751Z,2.75
2023-04-22T08:50:12.036Z,1.30
2023-04-22T08:52:39.894Z,2.83
2023-04-22T08:55:09.863Z,1.90
2023-04-22T08:57:39.318Z,1.20
2023-04-22T09:00:08.953Z,1.77
2023-04-22T09:02:38.529Z,6.57
2023-04-22T09:05:07.710Z,2.80
2023-04-22T09:07:36.361Z,3.20
2023-04-22T09:10:04.139Z,4.10
2023-04-22T09:12:33.036Z,1.67
2023-04-22T09:15:00.674Z,1.60
2023-04-22T09:17:33.083Z,2.60
2023-04-22T09:20:01.803Z,1.40
2023-04-22T09:22:30.439Z,2.10
2023-04-22T09:24:58.595Z,8.25
2023-04-22T09:27:27.109Z,5.47
2023-04-22T09:29:56.056Z,11.15
2023-04-22T09:32:25.839Z,5.45
2023-04-22T09:34:55.448Z,5.25
2023-04-22T09:37:30.975Z,4.68
2023-04-22T09:42:49.266Z,2.05
2023-04-22T09:45:28.200Z,3.15
2023-04-22T09:47:57.812Z,2.33
2023-04-22T09:50:27.464Z,2.58
2023-04-22T09:52:56.531Z,2.83
2023-04-22T09:55:26.441Z,1.48
2023-04-22T09:57:55.388Z,2.70
2023-04-22T10:00:24.650Z,1.48
2023-04-22T10:02:53.610Z,5.57
2023-04-22T10:05:21.321Z,1.30
2023-04-22T10:07:49.199Z,2.30
2023-04-22T10:10:16.938Z,3.40
2023-04-22T10:12:44.875Z,2.10
2023-04-22T10:15:12.503Z,4.40
2023-04-22T10:17:40.696Z,3.25
2023-04-22T10:20:14.125Z,2.45
2023-04-22T10:22:43.560Z,1.00
2023-04-22T10:25:21.751Z,2.03
2023-04-22T10:27:54.266Z,1.80
2023-04-22T10:30:28.823Z,6.10
2023-04-22T10:32:56.719Z,3.60
2023-04-22T10:35:30.250Z,3.75
2023-04-22T10:37:58.853Z,2.08
2023-04-22T10:40:27.143Z,2.38
2023-04-22T10:43:03.358Z,2.67
2023-04-22T10:45:33.438Z,2.42
2023-04-22T10:48:04.829Z,1.40
2023-04-22T10:50:33.786Z,1.42
2023-04-22T10:53:26.196Z,1.58
2023-04-22T10:55:56.343Z,2.75
2023-04-22T10:58:25.694Z,2.00
2023-04-22T11:00:59.748Z,1.63
2023-04-22T11:03:30.331Z,2.00
2023-04-22T11:06:30.129Z,2.55
2023-04-22T11:09:09.981Z,3.80
2023-04-22T11:11:37.639Z,2.33
2023-04-22T11:14:05.836Z,2.90
2023-04-22T11:16:34.430Z,1.42
2023-04-22T11:19:02.418Z,1.95
2023-04-22T11:21:32.911Z,1.77
2023-04-22T11:24:02.949Z,1.10
2023-04-22T11:26:35.085Z,1.73
2023-04-22T11:29:02.733Z,1.95
2023-04-22T11:31:30.412Z,1.67
2023-04-22T11:33:59.896Z,2.00
2023-04-22T11:36:27.535Z,2.40
2023-04-22T11:38:57.007Z,1.75
2023-04-22T11:41:24.587Z,1.50
2023-04-22T11:43:52.165Z,2.08
2023-04-22T11:46:29.633Z,1.85
2023-04-22T11:49:12.585Z,2.25
2023-04-22T11:51:53.221Z,3.43
2023-04-22T11:54:34.574Z,1.33
2023-04-22T11:57:04.647Z,2.13
2023-04-22T11:59:32.275Z,3.83
2023-04-22T12:01:59.866Z,1.73
2023-04-22T12:04:27.465Z,1.90
2023-04-22T12:06:55.127Z,2.75
2023-04-22T12:09:25.702Z,1.70
2023-04-22T12:11:56.901Z,2.08
2023-04-22T12:14:32.327Z,2.95
2023-04-22T12:17:04.512Z,3.58
2023-04-22T12:19:32.445Z,2.97
2023-04-22T12:22:00.139Z,1.15
2023-04-22T12:24:29.331Z,3.58
2023-04-22T12:26:58.571Z,2.97
2023-04-22T12:29:32.080Z,2.40
2023-04-22T12:31:59.913Z,2.67
2023-04-22T12:34:27.533Z,2.22
2023-04-22T12:36:56.204Z,2.88
2023-04-22T12:39:23.866Z,2.38
2023-04-22T12:41:51.469Z,2.30
2023-04-22T12:44:20.407Z,2.45
2023-04-22T12:46:48.112Z,3.47
2023-04-22T12:49:15.802Z,1.25
2023-04-22T12:51:43.353Z,1.75
2023-04-22T12:54:10.911Z,2.28
2023-04-22T12:56:38.582Z,3.20
2023-04-22T12:59:06.102Z,1.88
2023-04-22T13:01:35.967Z,2.40
2023-04-22T13:04:03.824Z,1.88
2023-04-22T13:06:32.336Z,1.88
2023-04-22T13:09:00.136Z,3.33
2023-04-22T13:11:27.750Z,1.08
2023-04-22T13:13:55.301Z,3.03
2023-04-22T13:16:22.987Z,1.40
2023-04-22T13:18:52.475Z,2.13
2023-04-22T13:21:20.003Z,2.50
2023-04-22T13:23:47.577Z,4.38
2023-04-22T13:26:15.153Z,7.40
2023-04-22T13:28:43.083Z,2.30
2023-04-22T13:31:10.661Z,2.00
2023-04-22T13:33:39.149Z,1.67
2023-04-22T13:36:08.418Z,2.58
2023-04-22T13:38:36.094Z,1.88
2023-04-22T13:41:03.716Z,1.70
2023-04-22T13:43:31.276Z,2.67
2023-04-22T13:45:59.064Z,1.45
2023-04-22T13:48:27.452Z,1.17
2023-04-22T13:50:55.006Z,2.90
2023-04-22T13:53:23.955Z,1.88
2023-04-22T13:55:51.634Z,2.92
2023-04-22T13:58:19.232Z,1.73
2023-04-22T14:00:46.897Z,2.33
2023-04-22T14:03:14.859Z,1.88
2023-04-22T14:05:42.575Z,2.45
2023-04-22T14:08:10.357Z,2.17
2023-04-22T14:10:39.317Z,2.28
2023-04-22T14:13:06.930Z,1.63
2023-04-22T14:15:34.622Z,2.30
2023-04-22T14:18:02.320Z,2.53
2023-04-22T14:20:29.927Z,3.85
2023-04-22T14:22:57.541Z,4.80
2023-04-22T14:25:25.096Z,2.50
2023-04-22T14:27:54.012Z,2.60
2023-04-22T14:30:21.912Z,2.65
2023-04-22T14:32:49.901Z,3.40
2023-04-22T14:35:18.507Z,2.10
2023-04-22T14:37:46.161Z,1.90
2023-04-22T14:40:14.321Z,2.53
2023-04-22T14:42:42.318Z,3.35
2023-04-22T14:45:14.438Z,2.08
2023-04-22T14:47:41.986Z,2.53
2023-04-22T14:50:10.063Z,1.98
2023-04-22T14:52:38.036Z,3.15
2023-04-22T14:55:19.441Z,2.92
2023-04-22T14:57:50.654Z,2.22
2023-04-22T15:00:19.842Z,1.58
2023-04-22T15:02:47.639Z,4.05
2023-04-22T15:05:15.302Z,3.40
2023-04-22T15:07:42.899Z,2.53
2023-04-22T15:10:10.812Z,2.00
2023-04-22T15:12:38.407Z,2.38
2023-04-22T15:15:06.904Z,4.13
2023-04-22T15:17:35.816Z,3.08
2023-04-22T15:20:05.252Z,1.13
2023-04-22T15:22:33.739Z,2.55
2023-04-22T15:25:01.394Z,2.45
2023-04-22T15:27:29.058Z,2.33
2023-04-22T15:29:57.639Z,2.25
2023-04-22T15:32:25.347Z,2.10
2023-04-22T15:34:54.271Z,3.67
2023-04-22T15:37:21.896Z,4.93
2023-04-22T15:39:49.455Z,5.63
2023-04-22T15:42:17.053Z,4.13
2023-04-22T15:44:44.587Z,3.65
2023-04-22T15:47:12.265Z,7.43
2023-04-22T15:49:39.992Z,4.50
2023-04-22T15:52:09.229Z,4.43
2023-04-22T15:54:36.913Z,4.10
2023-04-22T15:57:04.705Z,2.85
2023-04-22T15:59:32.272Z,3.72
2023-04-22T16:02:00.007Z,3.28
2023-04-22T16:04:27.950Z,4.35
2023-04-22T16:06:57.162Z,4.35
2023-04-22T16:09:26.143Z,6.25
2023-04-22T16:11:55.896Z,6.45
2023-04-22T16:14:23.548Z,6.40
2023-04-22T16:16:51.693Z,4.25
2023-04-22T16:19:19.554Z,4.40
2023-04-22T16:21:47.193Z,4.65
2023-04-22T16:24:15.425Z,4.60
2023-04-22T16:26:44.375Z,4.97
2023-04-22T16:29:12.492Z,3.70
2023-04-22T16:31:40.435Z,3.75
2023-04-22T16:34:08.946Z,4.22
2023-04-22T16:36:36.735Z,4.18
2023-04-22T16:39:04.914Z,4.10
2023-04-22T16:41:32.591Z,4.10
2023-04-22T16:44:02.953Z,5.53
2023-04-22T16:46:30.755Z,5.97
2023-04-22T16:48:58.378Z,4.90
2023-04-22T16:51:25.972Z,5.03
2023-04-22T16:53:53.607Z,5.03
2023-04-22T16:56:21.440Z,5.53
2023-04-22T16:58:49.116Z,3.85
2023-04-22T17:01:18.151Z,3.50
2023-04-22T17:03:46.325Z,4.03
2023-04-22T17:06:14.078Z,2.47
2023-04-22T17:08:41.761Z,4.85
2023-04-22T17:11:09.480Z,3.33
2023-04-22T17:13:37.394Z,3.40
2023-04-22T17:16:06.452Z,3.55
2023-04-22T17:18:35.650Z,3.25
2023-04-22T17:21:03.533Z,2.65
2023-04-22T17:23:31.223Z,4.05
2023-04-22T17:25:59.363Z,6.00
2023-04-22T17:28:26.988Z,6.90
2023-04-22T17:30:54.567Z,4.47
2023-04-22T17:33:22.258Z,2.30
2023-04-22T17:35:51.332Z,2.92
2023-04-22T17:38:19.619Z,3.35
2023-04-22T17:40:47.869Z,2.90
2023-04-22T17:43:15.641Z,4.40
2023-04-22T17:45:44.016Z,5.25
2023-04-22T17:48:11.931Z,2.83
2023-04-22T17:50:39.615Z,2.67
2023-04-22T17:53:08.801Z,2.10
2023-04-22T17:55:36.491Z,2.70
2023-04-22T17:58:06.372Z,7.20
2023-04-22T18:00:34.978Z,1.98
2023-04-22T18:03:02.982Z,1.95
2023-04-22T18:05:32.936Z,2.20
2023-04-22T18:08:02.496Z,2.15
2023-04-22T18:10:31.684Z,3.42
2023-04-22T18:12:59.317Z,1.60
2023-04-22T18:15:27.261Z,2.53
2023-04-22T18:17:57.156Z,1.85
2023-04-22T18:20:24.710Z,2.20
2023-04-22T18:22:52.869Z,3.30
2023-04-22T18:25:20.842Z,1.48
2023-04-22T18:27:50.584Z,2.05
2023-04-22T18:30:18.508Z,4.20
2023-04-22T18:32:46.159Z,1.80
2023-04-22T18:35:15.796Z,3.13
2023-04-22T18:37:44.235Z,5.25
2023-04-22T18:40:12.931Z,3.20
2023-04-22T18:42:44.816Z,2.58
2023-04-22T18:45:16.079Z,3.85
2023-04-22T18:47:45.410Z,4.20
2023-04-22T18:50:13.048Z,2.75
2023-04-22T18:52:40.723Z,3.47
2023-04-22T18:55:17.433Z,2.15
2023-04-22T18:57:45.210Z,4.28
2023-04-22T19:00:16.292Z,2.45
2023-04-22T19:02:45.621Z,4.88
2023-04-22T19:05:14.459Z,2.30
2023-04-22T19:07:44.483Z,3.33
2023-04-22T19:10:12.824Z,3.03
2023-04-22T19:12:40.482Z,3.00
2023-04-22T19:15:09.071Z,1.95
2023-04-22T19:17:38.545Z,3.53
2023-04-22T19:20:08.268Z,4.15
2023-04-22T19:22:36.145Z,3.05
2023-04-22T19:25:05.953Z,2.60
2023-04-22T19:27:34.207Z,3.15
2023-04-22T19:30:02.093Z,2.53
2023-04-22T19:32:29.716Z,2.47
2023-04-22T19:35:04.047Z,3.85
2023-04-22T19:37:31.988Z,3.05
2023-04-22T19:39:59.626Z,1.40
2023-04-22T19:42:28.527Z,5.03
2023-04-22T19:44:58.884Z,3.55
2023-04-22T19:47:27.274Z,3.33
2023-04-22T19:49:58.393Z,4.05
2023-04-22T19:52:31.754Z,2.47
2023-04-22T19:55:09.364Z,3.10
2023-04-22T19:57:43.353Z,6.35
2023-04-22T20:00:16.207Z,4.53
2023-04-22T20:02:50.931Z,4.68
2023-04-22T20:05:34.842Z,3.10
2023-04-22T20:08:16.238Z,2.17
2023-04-22T20:10:49.743Z,1.42
2023-04-22T20:13:23.487Z,2.45
2023-04-22T20:15:51.898Z,3.50
2023-04-22T20:18:22.980Z,4.75
2023-04-22T20:21:01.132Z,2.83
2023-04-22T20:23:35.113Z,2.58
2023-04-22T20:26:05.906Z,2.22
2023-04-22T20:28:44.785Z,2.13
2023-04-22T20:31:13.250Z,2.58
2023-04-22T20:33:41.271Z,3.55
2023-04-22T20:36:09.394Z,2.20
2023-04-22T20:38:38.529Z,4.30
2023-04-22T20:41:07.227Z,2.90
2023-04-22T20:43:35.410Z,2.97
2023-04-22T20:46:03.218Z,3.03
2023-04-22T20:48:31.141Z,2.75
2023-04-22T20:50:58.831Z,4.03
2023-04-22T20:53:28.171Z,3.10
2023-04-22T20:55:57.357Z,2.75
2023-04-22T20:58:24.922Z,1.67
2023-04-22T21:00:52.594Z,3.47
2023-04-22T21:03:23.507Z,6.07
2023-04-22T21:05:52.307Z,5.60
2023-04-22T21:08:22.684Z,4.40
2023-04-22T21:10:51.848Z,3.25
2023-04-22T21:13:21.580Z,3.60
2023-04-22T21:15:55.474Z,2.50
2023-04-22T21:18:25.607Z,3.95
2023-04-22T21:20:53.917Z,4.40
2023-04-22T21:23:24.060Z,4.00
2023-04-22T21:25:54.839Z,4.03
2023-04-22T21:28:24.806Z,5.32
2023-04-22T21:30:53.029Z,5.10
2023-04-22T21:33:20.709Z,2.53
2023-04-22T21:35:48.314Z,2.53
2023-04-22T21:38:16.234Z,3.05
2023-04-22T21:40:43.822Z,4.28
2023-04-22T21:43:11.359Z,3.33
2023-04-22T21:45:40.397Z,4.40
2023-04-22T21:48:08.364Z,4.45
2023-04-22T21:50:36.011Z,3.03
2023-04-22T21:53:03.637Z,5.25
2023-04-22T21:55:31.347Z,5.53
2023-04-22T21:57:58.871Z,3.55
2023-04-22T22:00:26.703Z,5.38
2023-04-22T22:02:55.773Z,4.30
2023-04-22T22:05:23.449Z,6.18
2023-04-22T22:07:52.833Z,6.63
2023-04-22T22:10:20.559Z,3.80
2023-04-22T22:12:48.337Z,4.45
2023-04-22T22:15:16.654Z,2.78
2023-04-22T22:17:44.537Z,3.78
2023-04-22T22:20:16.608Z,3.10
2023-04-22T22:22:45.116Z,3.33
2023-04-22T22:25:13.932Z,2.53
2023-04-22T22:27:45.464Z,4.50
2023-04-22T22:30:14.533Z,2.60
2023-04-22T22:32:42.374Z,3.22
2023-04-22T22:35:10.839Z,2.22
2023-04-22T22:37:39.997Z,4.28
2023-04-22T22:40:09.924Z,3.15
2023-04-22T22:42:37.574Z,5.10
2023-04-22T22:45:06.675Z,3.85
2023-04-22T22:47:34.357Z,2.38
2023-04-22T22:50:02.284Z,2.58
2023-04-22T22:52:29.943Z,3.25
2023-04-22T22:54:58.911Z,3.13
2023-04-22T22:57:26.448Z,4.65
2023-04-22T22:59:54.024Z,3.05
2023-04-22T23:02:21.705Z,3.47
2023-04-22T23:04:49.405Z,3.15
2023-04-22T23:07:17.621Z,3.28
2023-04-22T23:09:45.233Z,3.55
2023-04-22T23:12:14.156Z,4.40
2023-04-22T23:14:42.331Z,3.58
2023-04-22T23:17:10.343Z,5.00
2023-04-22T23:19:37.993Z,4.78
2023-04-22T23:22:07.044Z,3.17
2023-04-22T23:24:35.219Z,4.07
2023-04-22T23:27:03.414Z,3.38
2023-04-22T23:29:33.154Z,3.15
2023-04-22T23:32:03.345Z,3.42
2023-04-22T23:34:33.581Z,3.28
2023-04-22T23:37:05.206Z,3.00
2023-04-22T23:39:32.793Z,3.28
2023-04-22T23:42:01.072Z,4.82
2023-04-22T23:44:28.673Z,7.85
2023-04-22T23:46:57.786Z,20.35
2023-04-22T23:49:25.503Z,18.70
2023-04-22T23:51:53.628Z,15.68
2023-04-22T23:54:21.259Z,13.55
2023-04-22T23:56:49.356Z,21.73
2023-04-22T23:59:17.571Z,14.70
